Time;durP1;ratioP1;P1;durP2;ratioP2;P2;SDS_P1;SDS_P2;PMS_P1;PMS_P2;Temp;Humidity;BMP_temperature;BMP_pressure;BME280_temperature;BME280_humidity;BME280_pressure;Samples;Min_cycle;Max_cycle;Signal;HPM_P1;HPM_P2
2023/08/13 00:00:29;;;;;;;;;;;17.30;99.90;;;;;;4987870;28;19926;-62
2023/08/13 00:02:56;;;;;;;;;;;17.30;99.90;;;;;;4988774;28;19929;-61
2023/08/13 00:05:23;;;;;;;;;;;17.30;99.90;;;;;;4988612;28;19921;-62
2023/08/13 00:07:49;;;;;;;;;;;17.30;99.90;;;;;;4988467;28;19995;-61
2023/08/13 00:10:16;;;;;;;;;;;17.30;99.90;;;;;;4988184;28;20086;-62
2023/08/13 00:12:43;;;;;;;;;;;17.30;99.90;;;;;;4988500;28;19984;-63
2023/08/13 00:15:10;;;;;;;;;;;17.30;99.90;;;;;;4987857;28;19922;-62
2023/08/13 00:17:37;;;;;;;;;;;17.30;99.90;;;;;;4988735;28;19968;-62
2023/08/13 00:20:04;;;;;;;;;;;17.30;99.90;;;;;;4988283;28;19922;-62
2023/08/13 00:22:31;;;;;;;;;;;17.30;99.90;;;;;;4988454;28;19921;-62
2023/08/13 00:24:57;;;;;;;;;;;17.30;99.90;;;;;;4988062;28;20305;-62
2023/08/13 00:27:24;;;;;;;;;;;17.20;99.90;;;;;;4988576;28;19922;-62
2023/08/13 00:29:51;;;;;;;;;;;17.20;99.90;;;;;;4988317;28;20381;-65
2023/08/13 00:32:18;;;;;;;;;;;17.20;99.90;;;;;;4988588;28;19929;-62
2023/08/13 00:34:45;;;;;;;;;;;17.10;99.90;;;;;;4988181;28;20320;-62
2023/08/13 00:37:11;;;;;;;;;;;17.10;99.90;;;;;;4988346;28;19961;-62
2023/08/13 00:39:38;;;;;;;;;;;17.20;99.90;;;;;;4641640;28;10000307;-62
2023/08/13 00:42:05;;;;;;;;;;;17.20;99.90;;;;;;4985315;28;19932;-62
2023/08/13 00:44:31;;;;;;;;;;;17.20;99.90;;;;;;4987955;28;19922;-62
2023/08/13 00:46:58;;;;;;;;;;;17.20;99.90;;;;;;4987039;28;19926;-62
2023/08/13 00:49:25;;;;;;;;;;;17.10;99.90;;;;;;4987100;28;19921;-62
2023/08/13 00:51:51;;;;;;;;;;;17.20;99.90;;;;;;5002763;28;20332;-62
2023/08/13 00:54:18;;;;;;;;;;;17.10;99.90;;;;;;4988337;28;20015;-62
2023/08/13 00:56:46;;;;;;;;;;;17.10;99.90;;;;;;4986544;28;20399;-62
2023/08/13 00:59:13;;;;;;;;;;;17.10;99.90;;;;;;4988609;28;19929;-62
2023/08/13 01:01:41;;;;;;;;;;;17.20;99.90;;;;;;4989147;28;19984;-62
2023/08/13 01:04:08;;;;;;;;;;;17.20;99.90;;;;;;4991419;28;19922;-62
2023/08/13 01:06:38;;;;;;;;;;;17.20;99.90;;;;;;4991329;28;19935;-62
2023/08/13 01:09:05;;;;;;;;;;;17.20;99.90;;;;;;4991466;28;20352;-64
2023/08/13 01:11:32;;;;;;;;;;;17.20;99.90;;;;;;4991547;28;19961;-63
2023/08/13 01:14:12;;;;;;;;;;;17.20;99.90;;;;;;5006503;28;19932;-63
2023/08/13 01:16:41;;;;;;;;;;;17.20;99.90;;;;;;4989961;28;20001;-63
2023/08/13 01:19:09;;;;;;;;;;;17.10;99.90;;;;;;4991677;28;19928;-63
2023/08/13 01:21:36;;;;;;;;;;;17.10;99.90;;;;;;4991376;28;19930;-63
2023/08/13 01:24:03;;;;;;;;;;;17.10;99.90;;;;;;4991282;28;20344;-62
2023/08/13 01:26:31;;;;;;;;;;;17.10;99.90;;;;;;4991407;28;19921;-62
2023/08/13 01:29:06;;;;;;;;;;;17.10;99.90;;;;;;4989852;28;19933;-63
2023/08/13 01:31:34;;;;;;;;;;;17.10;99.90;;;;;;4991389;28;19928;-62
2023/08/13 01:34:01;;;;;;;;;;;17.00;99.90;;;;;;4989376;28;20329;-62
2023/08/13 01:36:28;;;;;;;;;;;17.00;99.90;;;;;;4989942;28;19937;-62
2023/08/13 01:38:55;;;;;;;;;;;16.90;99.90;;;;;;4989595;28;19929;-62
2023/08/13 01:41:21;;;;;;;;;;;17.00;99.90;;;;;;4990619;28;19928;-62
2023/08/13 01:43:48;;;;;;;;;;;16.90;99.90;;;;;;4990846;28;19930;-62
2023/08/13 01:46:15;;;;;;;;;;;16.90;99.90;;;;;;4990731;28;19922;-62
2023/08/13 01:48:41;;;;;;;;;;;16.90;99.90;;;;;;4990666;28;19928;-62
2023/08/13 01:51:08;;;;;;;;;;;16.80;99.90;;;;;;4989498;28;19972;-61
2023/08/13 01:53:35;;;;;;;;;;;16.90;99.90;;;;;;4990960;28;19951;-62
2023/08/13 01:56:02;;;;;;;;;;;16.90;99.90;;;;;;4990561;28;19922;-62
2023/08/13 01:58:28;;;;;;;;;;;16.90;99.90;;;;;;4990382;28;19922;-64
2023/08/13 02:00:55;;;;;;;;;;;16.80;99.90;;;;;;4990702;28;20277;-62
2023/08/13 02:03:22;;;;;;;;;;;16.80;99.90;;;;;;4990222;28;19928;-62
2023/08/13 02:05:49;;;;;;;;;;;16.90;99.90;;;;;;4990628;28;19972;-62
2023/08/13 02:08:16;;;;;;;;;;;16.90;99.90;;;;;;4990433;28;19922;-62
2023/08/13 02:10:42;;;;;;;;;;;16.90;99.90;;;;;;4990704;28;19922;-62
2023/08/13 02:13:09;;;;;;;;;;;16.90;99.90;;;;;;4989711;28;19926;-62
2023/08/13 02:15:36;;;;;;;;;;;16.90;99.90;;;;;;4990166;28;19922;-62
2023/08/13 02:18:02;;;;;;;;;;;16.90;99.90;;;;;;4990185;28;19922;-61
2023/08/13 02:20:29;;;;;;;;;;;16.90;99.90;;;;;;4990151;28;19945;-62
2023/08/13 02:22:56;;;;;;;;;;;17.00;99.90;;;;;;4990418;28;19922;-62
2023/08/13 02:25:22;;;;;;;;;;;16.90;99.90;;;;;;4990002;28;19961;-62
2023/08/13 02:27:49;;;;;;;;;;;16.90;99.90;;;;;;4990103;28;20220;-62
2023/08/13 02:30:16;;;;;;;;;;;16.80;99.90;;;;;;4989983;28;19928;-62
2023/08/13 02:32:43;;;;;;;;;;;16.80;99.90;;;;;;4990370;28;19925;-63
2023/08/13 02:35:10;;;;;;;;;;;16.80;99.90;;;;;;4989687;28;20385;-61
2023/08/13 02:37:36;;;;;;;;;;;16.80;99.90;;;;;;4990311;28;19929;-62
2023/08/13 02:40:06;;;;;;;;;;;16.80;99.90;;;;;;4989706;28;20444;-62
2023/08/13 02:42:33;;;;;;;;;;;16.70;99.90;;;;;;4990227;28;19922;-62
2023/08/13 02:44:59;;;;;;;;;;;16.70;99.90;;;;;;4989023;28;19922;-62
2023/08/13 02:47:26;;;;;;;;;;;16.60;99.90;;;;;;4989885;28;19929;-63
2023/08/13 02:49:53;;;;;;;;;;;16.70;99.90;;;;;;4989208;28;19929;-62
2023/08/13 02:52:20;;;;;;;;;;;16.70;99.90;;;;;;4989962;28;20348;-63
2023/08/13 02:54:46;;;;;;;;;;;16.60;99.90;;;;;;4988465;28;19992;-62
2023/08/13 02:57:13;;;;;;;;;;;16.60;99.90;;;;;;4989744;28;19921;-62
2023/08/13 02:59:40;;;;;;;;;;;16.60;99.90;;;;;;4989633;28;19944;-62
2023/08/13 03:02:06;;;;;;;;;;;16.70;99.90;;;;;;4988814;28;20397;-62
2023/08/13 03:04:33;;;;;;;;;;;16.70;99.90;;;;;;4989521;28;19921;-62
2023/08/13 03:07:00;;;;;;;;;;;16.60;99.90;;;;;;4989128;28;19921;-62
2023/08/13 03:09:27;;;;;;;;;;;16.60;99.90;;;;;;4989789;28;19921;-62
2023/08/13 03:11:53;;;;;;;;;;;16.60;99.90;;;;;;4989104;28;19921;-62
2023/08/13 03:14:20;;;;;;;;;;;16.60;99.90;;;;;;4989634;28;19926;-62
2023/08/13 03:16:47;;;;;;;;;;;16.60;99.90;;;;;;4988440;28;19922;-62
2023/08/13 03:19:14;;;;;;;;;;;16.70;99.90;;;;;;4989703;28;19921;-63
2023/08/13 03:21:40;;;;;;;;;;;16.70;99.90;;;;;;4988918;28;19976;-63
2023/08/13 03:24:07;;;;;;;;;;;16.60;99.90;;;;;;4988975;28;19921;-62
2023/08/13 03:26:34;;;;;;;;;;;16.60;99.90;;;;;;4988698;28;19961;-63
2023/08/13 03:29:00;;;;;;;;;;;16.50;99.90;;;;;;4989300;28;19929;-62
2023/08/13 03:31:27;;;;;;;;;;;16.60;99.90;;;;;;4989373;28;19926;-62
2023/08/13 03:33:54;;;;;;;;;;;16.60;99.90;;;;;;4988943;28;19964;-61
2023/08/13 03:36:21;;;;;;;;;;;16.50;99.90;;;;;;4989053;28;20296;-62
2023/08/13 03:38:47;;;;;;;;;;;16.60;99.90;;;;;;4988748;28;19922;-61
2023/08/13 03:41:14;;;;;;;;;;;16.60;99.90;;;;;;4989064;28;19922;-62
2023/08/13 03:43:41;;;;;;;;;;;16.60;99.90;;;;;;4988148;28;19929;-63
2023/08/13 03:46:07;;;;;;;;;;;16.60;99.90;;;;;;4988806;28;19957;-62
2023/08/13 03:48:34;;;;;;;;;;;16.60;99.90;;;;;;4988746;28;19925;-63
2023/08/13 03:51:02;;;;;;;;;;;16.60;99.90;;;;;;4988873;28;19922;-62
2023/08/13 03:53:29;;;;;;;;;;;16.60;99.90;;;;;;4988956;28;19928;-62
2023/08/13 03:55:55;;;;;;;;;;;16.60;99.90;;;;;;4988632;28;19922;-62
2023/08/13 03:58:22;;;;;;;;;;;16.60;99.90;;;;;;4988318;28;20119;-63
2023/08/13 04:00:49;;;;;;;;;;;16.50;99.90;;;;;;4989091;28;19929;-62
2023/08/13 04:03:15;;;;;;;;;;;16.60;99.90;;;;;;4988892;28;19944;-61
2023/08/13 04:05:52;;;;;;;;;;;16.60;99.90;;;;;;4974810;28;19929;-62
2023/08/13 04:08:18;;;;;;;;;;;16.60;99.90;;;;;;4983302;28;20361;-61
2023/08/13 04:10:45;;;;;;;;;;;16.60;99.90;;;;;;4987736;28;20053;-61
2023/08/13 04:13:12;;;;;;;;;;;16.70;99.90;;;;;;4987356;28;19980;-61
2023/08/13 04:15:38;;;;;;;;;;;16.70;99.90;;;;;;4989146;28;20340;-61
2023/08/13 04:18:06;;;;;;;;;;;16.70;99.90;;;;;;4987808;28;19922;-61
2023/08/13 04:20:34;;;;;;;;;;;16.70;99.90;;;;;;4989008;28;19922;-61
2023/08/13 04:23:01;;;;;;;;;;;16.70;99.90;;;;;;4988220;28;19984;-61
2023/08/13 04:25:28;;;;;;;;;;;16.80;99.90;;;;;;4988161;28;20019;-61
2023/08/13 04:27:54;;;;;;;;;;;16.80;99.90;;;;;;4988550;28;19922;-61
2023/08/13 04:30:21;;;;;;;;;;;16.80;99.90;;;;;;4988576;28;19921;-62
2023/08/13 04:32:51;;;;;;;;;;;16.80;99.90;;;;;;4988663;28;19969;-61
2023/08/13 04:35:18;;;;;;;;;;;16.80;99.90;;;;;;4988707;28;19928;-62
2023/08/13 04:37:45;;;;;;;;;;;16.90;99.90;;;;;;4991606;28;19921;-61
2023/08/13 04:40:11;;;;;;;;;;;16.90;99.90;;;;;;4992440;28;19984;-61
2023/08/13 04:42:40;;;;;;;;;;;16.90;99.90;;;;;;4991138;28;20199;-61
2023/08/13 04:45:07;;;;;;;;;;;16.80;99.90;;;;;;4991626;28;20289;-61
2023/08/13 04:47:34;;;;;;;;;;;16.90;99.90;;;;;;4992185;28;19972;-61
2023/08/13 04:50:01;;;;;;;;;;;16.90;99.90;;;;;;4991670;28;19921;-61
2023/08/13 04:52:28;;;;;;;;;;;16.90;99.90;;;;;;4992060;28;19922;-61
2023/08/13 04:54:54;;;;;;;;;;;16.90;99.90;;;;;;4991370;28;19939;-62
2023/08/13 04:57:21;;;;;;;;;;;17.00;99.90;;;;;;4991443;28;20132;-62
2023/08/13 04:59:48;;;;;;;;;;;17.00;99.90;;;;;;4991371;28;20128;-61
2023/08/13 05:02:14;;;;;;;;;;;17.00;99.90;;;;;;4991965;28;20005;-62
2023/08/13 05:04:41;;;;;;;;;;;17.00;99.90;;;;;;4992076;28;19921;-61
2023/08/13 05:07:08;;;;;;;;;;;17.10;99.90;;;;;;4991530;28;19972;-61
2023/08/13 05:09:35;;;;;;;;;;;17.10;99.90;;;;;;4991491;28;19921;-61
2023/08/13 05:12:02;;;;;;;;;;;17.00;99.90;;;;;;4990275;28;19928;-61
2023/08/13 05:14:29;;;;;;;;;;;17.10;99.90;;;;;;4991561;28;19922;-61
2023/08/13 05:16:56;;;;;;;;;;;17.00;99.90;;;;;;4991330;28;19928;-61
2023/08/13 05:19:22;;;;;;;;;;;17.10;99.90;;;;;;4989844;28;19929;-61
2023/08/13 05:21:51;;;;;;;;;;;17.10;99.90;;;;;;4991054;28;19922;-62
2023/08/13 05:24:18;;;;;;;;;;;17.10;99.90;;;;;;4991329;28;19922;-61
2023/08/13 05:26:45;;;;;;;;;;;17.10;99.90;;;;;;4991374;28;19928;-62
2023/08/13 05:29:14;;;;;;;;;;;17.10;99.90;;;;;;4991231;28;20332;-62
2023/08/13 05:31:42;;;;;;;;;;;17.10;99.90;;;;;;4990824;28;19976;-62
2023/08/13 05:34:08;;;;;;;;;;;17.20;99.90;;;;;;4991191;28;19930;-61
2023/08/13 05:36:36;;;;;;;;;;;17.10;99.90;;;;;;4991270;28;19922;-61
2023/08/13 05:39:04;;;;;;;;;;;17.10;99.90;;;;;;4991124;28;20110;-61
2023/08/13 05:41:31;;;;;;;;;;;17.10;99.90;;;;;;4989830;28;19928;-61
2023/08/13 05:43:58;;;;;;;;;;;17.10;99.90;;;;;;4991069;28;20400;-61
2023/08/13 05:46:25;;;;;;;;;;;17.10;99.90;;;;;;4990806;28;19921;-61
2023/08/13 05:48:51;;;;;;;;;;;17.10;99.90;;;;;;4989545;28;20464;-62
2023/08/13 05:51:18;;;;;;;;;;;17.10;99.90;;;;;;4990681;28;19929;-62
2023/08/13 05:53:45;;;;;;;;;;;17.00;99.90;;;;;;4991215;28;19954;-61
2023/08/13 05:56:12;;;;;;;;;;;17.00;99.90;;;;;;4990310;28;19972;-61
2023/08/13 05:58:38;;;;;;;;;;;17.00;99.90;;;;;;4990992;28;20044;-62
2023/08/13 06:01:05;;;;;;;;;;;17.00;99.90;;;;;;4990161;28;19922;-61
2023/08/13 06:03:33;;;;;;;;;;;17.00;99.90;;;;;;4991176;28;20012;-61
2023/08/13 06:05:59;;;;;;;;;;;17.00;99.90;;;;;;4990366;28;20392;-61
2023/08/13 06:08:26;;;;;;;;;;;17.00;99.90;;;;;;4990450;28;19922;-62
2023/08/13 06:10:53;;;;;;;;;;;17.10;99.90;;;;;;4990307;28;19922;-60
2023/08/13 06:13:19;;;;;;;;;;;17.10;99.90;;;;;;4990458;28;20436;-62
2023/08/13 06:15:46;;;;;;;;;;;17.10;99.90;;;;;;4991038;28;19925;-62
2023/08/13 06:18:14;;;;;;;;;;;17.10;99.90;;;;;;4987520;28;19988;-62
2023/08/13 06:20:40;;;;;;;;;;;17.10;99.90;;;;;;4992967;28;20340;-63
2023/08/13 06:23:07;;;;;;;;;;;17.10;99.90;;;;;;4990302;28;19929;-62
2023/08/13 06:25:34;;;;;;;;;;;17.20;99.90;;;;;;4990083;28;20385;-63
2023/08/13 06:28:01;;;;;;;;;;;17.20;99.90;;;;;;4989344;28;19925;-62
2023/08/13 06:30:27;;;;;;;;;;;17.20;99.90;;;;;;4990302;28;19928;-62
2023/08/13 06:32:54;;;;;;;;;;;17.20;99.90;;;;;;4989124;28;19922;-62
2023/08/13 06:35:21;;;;;;;;;;;17.30;99.90;;;;;;4990338;28;19988;-62
2023/08/13 06:37:48;;;;;;;;;;;17.30;99.90;;;;;;4989670;28;19929;-61
2023/08/13 06:40:27;;;;;;;;;;;17.30;99.90;;;;;;4990001;28;20381;-61
2023/08/13 06:42:54;;;;;;;;;;;17.30;99.90;;;;;;4989508;28;19929;-62
2023/08/13 06:45:26;;;;;;;;;;;17.30;99.90;;;;;;5005255;28;19957;-62
2023/08/13 06:47:57;;;;;;;;;;;17.40;99.90;;;;;;4989212;28;20163;-62
2023/08/13 06:50:24;;;;;;;;;;;17.40;99.90;;;;;;4989729;28;19922;-62
2023/08/13 06:52:51;;;;;;;;;;;17.50;99.90;;;;;;4989209;28;20386;-62
2023/08/13 06:55:18;;;;;;;;;;;17.50;99.90;;;;;;4988184;28;21000;-62
2023/08/13 06:57:46;;;;;;;;;;;17.60;99.90;;;;;;4989438;28;19936;-62
2023/08/13 07:00:13;;;;;;;;;;;17.70;99.90;;;;;;4989333;28;19922;-61
2023/08/13 07:02:40;;;;;;;;;;;17.80;99.90;;;;;;4989619;28;19929;-61
2023/08/13 07:05:09;;;;;;;;;;;17.90;99.90;;;;;;4989272;28;20020;-62
2023/08/13 07:07:36;;;;;;;;;;;18.00;99.90;;;;;;4998271;28;19921;-62
2023/08/13 07:10:04;;;;;;;;;;;18.00;99.90;;;;;;4989044;28;19922;-63
2023/08/13 07:12:30;;;;;;;;;;;18.00;99.90;;;;;;4988432;28;19934;-63
2023/08/13 07:14:57;;;;;;;;;;;17.90;99.90;;;;;;4993313;28;19922;-63
2023/08/13 07:17:24;;;;;;;;;;;18.00;99.90;;;;;;4991672;28;19929;-61
2023/08/13 07:19:51;;;;;;;;;;;18.00;99.90;;;;;;4988798;28;19972;-61
2023/08/13 07:22:19;;;;;;;;;;;18.00;99.90;;;;;;4992512;28;19921;-61
2023/08/13 07:24:45;;;;;;;;;;;18.00;99.90;;;;;;4996137;28;19968;-61
2023/08/13 07:27:12;;;;;;;;;;;18.00;99.90;;;;;;4988485;28;20021;-61
2023/08/13 07:29:39;;;;;;;;;;;18.20;99.90;;;;;;4988506;28;19925;-61
2023/08/13 07:32:06;;;;;;;;;;;18.40;99.90;;;;;;4989082;28;19921;-61
2023/08/13 07:34:32;;;;;;;;;;;18.50;99.90;;;;;;4988694;28;20300;-62
2023/08/13 07:36:59;;;;;;;;;;;18.60;99.90;;;;;;4987599;28;19928;-61
2023/08/13 07:39:26;;;;;;;;;;;18.70;99.90;;;;;;4988779;28;20391;-61
2023/08/13 07:41:53;;;;;;;;;;;18.70;99.90;;;;;;4988724;28;19926;-63
2023/08/13 07:44:20;;;;;;;;;;;18.70;99.90;;;;;;4989125;28;19921;-60
2023/08/13 07:46:50;;;;;;;;;;;18.80;99.90;;;;;;4988976;28;19922;-60
2023/08/13 07:49:17;;;;;;;;;;;18.80;99.90;;;;;;4988514;28;20181;-59
2023/08/13 07:51:44;;;;;;;;;;;18.90;99.90;;;;;;4988051;28;20408;-62
2023/08/13 07:54:10;;;;;;;;;;;18.70;99.90;;;;;;4988124;28;19925;-63
2023/08/13 07:56:37;;;;;;;;;;;18.70;99.90;;;;;;4988337;28;19940;-62
2023/08/13 07:59:05;;;;;;;;;;;18.60;99.90;;;;;;4988766;28;19929;-62
2023/08/13 08:01:31;;;;;;;;;;;18.30;99.90;;;;;;4988073;28;19922;-63
2023/08/13 08:03:58;;;;;;;;;;;18.00;99.90;;;;;;4988425;28;19956;-62
2023/08/13 08:06:25;;;;;;;;;;;17.80;99.90;;;;;;4988624;28;20004;-62
2023/08/13 08:08:54;;;;;;;;;;;17.80;99.90;;;;;;4990662;28;19928;-62
2023/08/13 08:11:21;;;;;;;;;;;17.70;99.90;;;;;;4988320;28;19927;-64
2023/08/13 08:13:48;;;;;;;;;;;17.80;99.90;;;;;;4992840;28;19921;-63
2023/08/13 08:16:15;;;;;;;;;;;17.70;99.90;;;;;;4992456;28;19921;-64
2023/08/13 08:18:41;;;;;;;;;;;17.70;99.90;;;;;;4992433;28;20301;-64
2023/08/13 08:21:10;;;;;;;;;;;17.80;99.90;;;;;;4991800;28;19926;-63
2023/08/13 08:23:36;;;;;;;;;;;18.00;99.90;;;;;;5004174;28;19928;-63
2023/08/13 08:26:04;;;;;;;;;;;18.10;99.90;;;;;;4994604;28;20550;-62
2023/08/13 08:28:30;;;;;;;;;;;18.20;99.90;;;;;;4992298;28;20361;-60
2023/08/13 08:30:57;;;;;;;;;;;18.30;99.90;;;;;;4991792;28;19922;-59
2023/08/13 08:33:24;;;;;;;;;;;18.50;99.90;;;;;;4992219;28;19922;-59
2023/08/13 08:35:51;;;;;;;;;;;18.60;99.90;;;;;;4991861;28;19929;-60
2023/08/13 08:38:18;;;;;;;;;;;18.70;99.90;;;;;;4992582;28;20347;-62
2023/08/13 08:40:48;;;;;;;;;;;18.90;99.90;;;;;;4990809;28;20445;-60
2023/08/13 08:43:16;;;;;;;;;;;19.00;99.90;;;;;;4990572;28;19922;-60
2023/08/13 08:45:43;;;;;;;;;;;19.00;99.90;;;;;;4990883;28;20012;-60
2023/08/13 08:48:10;;;;;;;;;;;19.00;99.90;;;;;;4989588;28;19921;-60
2023/08/13 08:50:37;;;;;;;;;;;19.00;99.90;;;;;;4990213;28;19922;-60
2023/08/13 08:53:04;;;;;;;;;;;19.10;99.90;;;;;;4991309;28;20651;-61
2023/08/13 08:55:30;;;;;;;;;;;19.20;99.90;;;;;;4991395;28;19928;-58
2023/08/13 08:57:57;;;;;;;;;;;19.20;99.90;;;;;;4991003;28;19921;-60
2023/08/13 09:00:24;;;;;;;;;;;19.20;99.90;;;;;;4992058;28;19922;-61
2023/08/13 09:02:51;;;;;;;;;;;19.10;99.90;;;;;;4990787;28;20391;-62
2023/08/13 09:05:17;;;;;;;;;;;19.00;99.90;;;;;;4990194;28;19957;-62
2023/08/13 09:07:44;;;;;;;;;;;19.00;99.90;;;;;;4989510;28;20005;-62
2023/08/13 09:10:11;;;;;;;;;;;19.00;99.90;;;;;;4990158;28;19930;-62
2023/08/13 09:12:38;;;;;;;;;;;19.10;99.90;;;;;;4989390;28;19952;-61
2023/08/13 09:15:05;;;;;;;;;;;19.20;99.90;;;;;;4989756;28;19921;-61
2023/08/13 09:17:32;;;;;;;;;;;19.40;99.90;;;;;;4989648;28;20000;-60
2023/08/13 09:19:59;;;;;;;;;;;19.50;99.90;;;;;;4991196;28;20157;-60
2023/08/13 09:22:31;;;;;;;;;;;19.60;99.90;;;;;;4991381;28;19922;-61
2023/08/13 09:24:59;;;;;;;;;;;19.70;99.90;;;;;;4990834;28;19984;-61
2023/08/13 09:27:26;;;;;;;;;;;19.80;99.90;;;;;;4991004;28;19926;-61
2023/08/13 09:29:53;;;;;;;;;;;19.90;99.90;;;;;;4990884;28;19926;-62
2023/08/13 09:32:20;;;;;;;;;;;20.10;99.90;;;;;;4991572;28;19922;-61
2023/08/13 09:34:46;;;;;;;;;;;20.10;99.90;;;;;;4989631;28;19933;-61
2023/08/13 09:37:14;;;;;;;;;;;20.20;99.90;;;;;;4991301;28;19921;-61
2023/08/13 09:39:41;;;;;;;;;;;20.20;99.90;;;;;;4989596;28;19921;-61
2023/08/13 09:42:08;;;;;;;;;;;20.30;99.90;;;;;;4989931;28;20021;-61
2023/08/13 09:44:34;;;;;;;;;;;20.40;99.90;;;;;;4989163;28;19976;-61
2023/08/13 09:47:02;;;;;;;;;;;20.30;99.90;;;;;;4989666;28;19922;-61
2023/08/13 09:49:30;;;;;;;;;;;20.50;99.90;;;;;;4990481;28;19929;-61
2023/08/13 09:52:00;;;;;;;;;;;20.70;99.90;;;;;;4990701;28;19921;-61
2023/08/13 09:54:38;;;;;;;;;;;20.90;99.90;;;;;;4990705;28;19921;-61
2023/08/13 09:57:09;;;;;;;;;;;21.00;99.90;;;;;;4989468;28;19929;-62
2023/08/13 09:59:36;;;;;;;;;;;21.00;99.90;;;;;;4990250;28;19922;-61
2023/08/13 10:02:07;;;;;;;;;;;21.30;99.90;;;;;;4990521;28;20352;-61
2023/08/13 10:04:40;;;;;;;;;;;21.80;99.90;;;;;;5005138;28;20001;-62
2023/08/13 10:07:07;;;;;;;;;;;22.10;99.90;;;;;;4981764;28;20393;-62
2023/08/13 10:09:34;;;;;;;;;;;22.20;99.90;;;;;;4990243;28;19933;-62
2023/08/13 10:12:01;;;;;;;;;;;22.20;99.90;;;;;;4989261;28;19921;-62
2023/08/13 10:14:28;;;;;;;;;;;22.10;99.90;;;;;;4981319;28;19996;-61
2023/08/13 10:16:55;;;;;;;;;;;22.00;99.90;;;;;;4988648;28;19921;-61
2023/08/13 10:19:31;;;;;;;;;;;22.00;99.90;;;;;;4988913;28;20321;-61
2023/08/13 10:21:58;;;;;;;;;;;22.20;99.90;;;;;;4990209;28;19929;-61
2023/08/13 10:24:27;;;;;;;;;;;22.30;99.90;;;;;;4990079;28;19936;-61
2023/08/13 10:26:54;;;;;;;;;;;22.50;99.90;;;;;;4988263;28;20296;-61
2023/08/13 10:29:21;;;;;;;;;;;22.60;99.90;;;;;;4990093;28;19922;-61
2023/08/13 10:31:54;;;;;;;;;;;22.80;99.90;;;;;;4988615;28;20253;-61
2023/08/13 10:34:40;;;;;;;;;;;22.70;99.90;;;;;;4970130;28;19969;-61
2023/08/13 10:37:16;;;;;;;;;;;22.60;99.90;;;;;;4987726;28;19928;-61
2023/08/13 10:39:43;;;;;;;;;;;22.80;99.90;;;;;;4990208;28;20371;-61
2023/08/13 10:42:34;;;;;;;;;;;22.80;99.90;;;;;;4989510;28;19952;-61
2023/08/13 10:45:01;;;;;;;;;;;22.40;99.90;;;;;;4989839;28;19949;-61
2023/08/13 10:47:40;;;;;;;;;;;21.90;99.90;;;;;;4989864;28;19969;-62
2023/08/13 10:50:07;;;;;;;;;;;21.90;99.90;;;;;;4989689;28;19945;-61
2023/08/13 10:52:33;;;;;;;;;;;21.80;99.90;;;;;;4989461;28;19976;-61
2023/08/13 10:55:00;;;;;;;;;;;21.80;99.90;;;;;;4989041;28;19972;-60
2023/08/13 10:57:28;;;;;;;;;;;21.60;99.90;;;;;;4989245;28;19922;-60
2023/08/13 10:59:55;;;;;;;;;;;21.70;99.90;;;;;;4989487;28;19921;-61
2023/08/13 11:02:24;;;;;;;;;;;21.80;99.90;;;;;;4989394;28;19945;-61
2023/08/13 11:04:51;;;;;;;;;;;21.90;99.90;;;;;;4989570;28;20308;-61
2023/08/13 11:07:18;;;;;;;;;;;22.00;99.90;;;;;;4989040;28;19921;-61
2023/08/13 11:09:45;;;;;;;;;;;22.10;99.90;;;;;;4988412;28;19925;-60
2023/08/13 11:12:11;;;;;;;;;;;22.10;99.90;;;;;;4988874;28;19929;-60
2023/08/13 11:14:39;;;;;;;;;;;22.20;99.90;;;;;;4989548;28;19921;-60
2023/08/13 11:17:06;;;;;;;;;;;22.30;99.90;;;;;;4987555;28;19945;-60
2023/08/13 11:19:33;;;;;;;;;;;22.40;99.90;;;;;;4989242;28;19933;-60
2023/08/13 11:22:02;;;;;;;;;;;22.40;99.90;;;;;;4988860;28;19922;-60
2023/08/13 11:24:34;;;;;;;;;;;22.60;99.90;;;;;;4989491;28;19921;-60
2023/08/13 11:27:01;;;;;;;;;;;22.70;99.90;;;;;;4988519;28;19976;-61
2023/08/13 11:29:30;;;;;;;;;;;22.90;99.90;;;;;;4989076;28;19922;-61
2023/08/13 11:31:57;;;;;;;;;;;22.90;99.90;;;;;;4988814;28;20080;-61
2023/08/13 11:34:24;;;;;;;;;;;22.90;99.90;;;;;;4988898;28;19925;-61
2023/08/13 11:36:52;;;;;;;;;;;23.00;99.90;;;;;;4988684;28;19929;-61
2023/08/13 11:39:18;;;;;;;;;;;22.90;99.90;;;;;;4988869;28;19922;-61
2023/08/13 11:41:46;;;;;;;;;;;23.00;99.90;;;;;;4989129;28;20394;-61
2023/08/13 11:44:12;;;;;;;;;;;23.00;99.90;;;;;;4988755;28;19928;-61
2023/08/13 11:46:53;;;;;;;;;;;23.10;99.90;;;;;;4969093;28;19922;-61
2023/08/13 11:49:19;;;;;;;;;;;23.10;99.90;;;;;;4987431;28;19921;-60
2023/08/13 11:51:46;;;;;;;;;;;23.10;99.90;;;;;;4989207;28;19929;-61
2023/08/13 11:54:13;;;;;;;;;;;22.90;99.90;;;;;;4987841;28;19921;-60
2023/08/13 11:56:40;;;;;;;;;;;23.00;99.90;;;;;;4988842;28;20284;-60
2023/08/13 11:59:06;;;;;;;;;;;22.90;99.90;;;;;;4988216;28;19976;-60
2023/08/13 12:01:34;;;;;;;;;;;22.90;99.90;;;;;;4987435;28;19921;-61
2023/08/13 12:04:02;;;;;;;;;;;23.00;99.90;;;;;;4988525;28;19921;-60
2023/08/13 12:06:29;;;;;;;;;;;23.00;99.90;;;;;;4988720;28;19961;-60
2023/08/13 12:08:58;;;;;;;;;;;23.10;99.90;;;;;;4987981;28;19921;-60
2023/08/13 12:11:25;;;;;;;;;;;23.10;99.90;;;;;;4988712;28;19922;-60
2023/08/13 12:13:51;;;;;;;;;;;23.10;99.90;;;;;;4987839;28;19921;-60
2023/08/13 12:16:18;;;;;;;;;;;23.00;99.90;;;;;;4988396;28;19922;-61
2023/08/13 12:18:45;;;;;;;;;;;22.80;99.90;;;;;;4988051;28;19948;-61
2023/08/13 12:21:12;;;;;;;;;;;22.80;99.90;;;;;;4988345;28;19976;-61
2023/08/13 12:23:38;;;;;;;;;;;22.70;99.90;;;;;;4988292;28;19921;-61
2023/08/13 12:26:05;;;;;;;;;;;22.80;99.90;;;;;;4987993;28;19922;-61
2023/08/13 12:28:32;;;;;;;;;;;22.90;99.90;;;;;;4988125;28;19922;-61
2023/08/13 12:30:58;;;;;;;;;;;23.00;99.90;;;;;;4988109;28;19928;-61
2023/08/13 12:33:25;;;;;;;;;;;23.10;99.90;;;;;;4988454;28;19968;-61
2023/08/13 12:35:52;;;;;;;;;;;23.20;99.90;;;;;;4987945;28;19922;-60
2023/08/13 12:38:19;;;;;;;;;;;23.30;99.90;;;;;;4988480;28;20574;-61
2023/08/13 12:40:45;;;;;;;;;;;23.30;99.90;;;;;;4987941;28;19925;-60
2023/08/13 12:43:12;;;;;;;;;;;23.10;99.90;;;;;;4987810;28;19928;-60
2023/08/13 12:45:39;;;;;;;;;;;23.20;99.90;;;;;;4987450;28;19979;-60
2023/08/13 12:48:06;;;;;;;;;;;23.30;99.90;;;;;;4988130;28;19921;-62
2023/08/13 12:50:32;;;;;;;;;;;23.40;99.90;;;;;;4987861;28;19949;-60
2023/08/13 12:53:00;;;;;;;;;;;23.20;99.60;;;;;;4988030;28;19922;-60
2023/08/13 12:55:27;;;;;;;;;;;23.20;99.60;;;;;;4987882;28;20411;-62
2023/08/13 12:57:54;;;;;;;;;;;23.40;99.90;;;;;;4989943;28;20031;-60
2023/08/13 13:00:20;;;;;;;;;;;23.40;99.80;;;;;;4991419;28;19921;-62
2023/08/13 13:02:47;;;;;;;;;;;23.50;99.90;;;;;;4991631;28;19925;-60
2023/08/13 13:05:14;;;;;;;;;;;23.50;99.90;;;;;;4991143;28;19926;-60
2023/08/13 13:07:41;;;;;;;;;;;23.40;99.10;;;;;;4991455;28;19953;-60
2023/08/13 13:10:07;;;;;;;;;;;23.50;99.60;;;;;;4991039;28;20475;-60
2023/08/13 13:12:34;;;;;;;;;;;23.50;99.00;;;;;;4991243;28;19922;-60
2023/08/13 13:15:01;;;;;;;;;;;23.30;99.00;;;;;;4991390;28;20009;-60
2023/08/13 13:17:28;;;;;;;;;;;23.40;98.80;;;;;;4990160;28;19928;-61
2023/08/13 13:19:55;;;;;;;;;;;23.50;99.10;;;;;;4991217;28;20005;-61
2023/08/13 13:22:21;;;;;;;;;;;23.60;98.70;;;;;;4991077;28;19992;-61
2023/08/13 13:24:48;;;;;;;;;;;23.70;99.00;;;;;;4990873;28;19968;-60
2023/08/13 13:27:15;;;;;;;;;;;24.00;98.90;;;;;;4991016;28;19929;-61
2023/08/13 13:29:42;;;;;;;;;;;24.00;98.40;;;;;;4987586;28;20373;-60
2023/08/13 13:32:09;;;;;;;;;;;24.10;98.40;;;;;;4990486;28;20136;-60
2023/08/13 13:34:35;;;;;;;;;;;24.00;97.80;;;;;;4988821;28;19921;-61
2023/08/13 13:37:02;;;;;;;;;;;24.20;97.80;;;;;;4990470;28;19922;-61
2023/08/13 13:39:30;;;;;;;;;;;24.10;96.50;;;;;;4991124;28;19969;-61
2023/08/13 13:41:57;;;;;;;;;;;24.10;96.10;;;;;;4990928;28;19928;-61
2023/08/13 13:44:24;;;;;;;;;;;23.90;96.30;;;;;;4991269;28;19937;-61
2023/08/13 13:46:50;;;;;;;;;;;24.00;97.60;;;;;;4990450;28;19984;-61
2023/08/13 13:49:17;;;;;;;;;;;23.80;97.30;;;;;;4990896;28;20016;-61
2023/08/13 13:51:45;;;;;;;;;;;23.80;98.90;;;;;;4990572;28;19953;-61
2023/08/13 13:54:11;;;;;;;;;;;24.00;99.20;;;;;;4986980;28;20384;-61
2023/08/13 13:56:38;;;;;;;;;;;24.00;98.80;;;;;;4990659;28;20284;-61
2023/08/13 13:59:05;;;;;;;;;;;24.00;98.80;;;;;;4990697;28;19929;-60
2023/08/13 14:01:32;;;;;;;;;;;24.00;99.30;;;;;;4990957;28;19921;-60
2023/08/13 14:03:58;;;;;;;;;;;23.90;97.50;;;;;;4990304;28;19972;-60
2023/08/13 14:06:25;;;;;;;;;;;23.90;96.80;;;;;;4990604;28;19928;-60
2023/08/13 14:08:52;;;;;;;;;;;23.90;97.40;;;;;;4988942;28;19928;-61
2023/08/13 14:11:19;;;;;;;;;;;23.90;97.90;;;;;;4990755;28;19922;-60
2023/08/13 14:13:46;;;;;;;;;;;24.10;97.80;;;;;;4989865;28;19922;-60
2023/08/13 14:16:13;;;;;;;;;;;24.20;97.50;;;;;;4990569;28;19991;-61